createdAt,value
2022-09-26T00:01:36.603Z,13.10
2022-09-26T00:04:32.618Z,13.11
2022-09-26T00:07:00.501Z,13.13
2022-09-26T00:09:28.829Z,13.13
2022-09-26T00:11:56.248Z,13.08
2022-09-26T00:14:29.422Z,13.11
2022-09-26T00:16:56.920Z,13.14
2022-09-26T00:19:25.408Z,13.11
2022-09-26T00:21:52.637Z,13.16
2022-09-26T00:24:20.138Z,13.14
2022-09-26T00:26:48.401Z,13.13
2022-09-26T00:29:15.819Z,13.19
2022-09-26T00:31:46.071Z,13.15
2022-09-26T00:34:17.879Z,13.12
2022-09-26T00:36:45.495Z,13.06
2022-09-26T00:39:15.739Z,13.03
2022-09-26T00:41:44.009Z,13.00
2022-09-26T00:44:50.980Z,12.95
2022-09-26T00:47:33.053Z,12.99
2022-09-26T00:50:10.769Z,13.00
2022-09-26T00:52:55.169Z,13.01
2022-09-26T00:55:29.112Z,13.03
2022-09-26T00:58:28.177Z,13.03
2022-09-26T01:00:57.552Z,13.11
2022-09-26T01:03:28.282Z,13.11
2022-09-26T01:05:56.351Z,13.11
2022-09-26T01:08:33.233Z,13.12
2022-09-26T01:11:02.371Z,13.07
2022-09-26T01:13:34.346Z,13.13
2022-09-26T01:16:02.283Z,13.06
2022-09-26T01:18:30.802Z,13.05
2022-09-26T01:21:24.920Z,13.04
2022-09-26T01:24:10.720Z,13.06
2022-09-26T01:27:15.850Z,12.95
2022-09-26T01:30:04.785Z,13.01
2022-09-26T01:32:49.888Z,13.05
2022-09-26T01:35:51.759Z,12.99
2022-09-26T01:38:48.780Z,12.94
2022-09-26T01:42:19.234Z,12.95
2022-09-26T01:45:07.203Z,12.94
2022-09-26T01:47:48.585Z,12.90
2022-09-26T01:50:38.368Z,12.92
2022-09-26T01:53:25.852Z,12.93
2022-09-26T01:56:00.038Z,12.94
2022-09-26T01:58:42.637Z,12.95
2022-09-26T02:01:15.647Z,12.97
2022-09-26T02:03:57.231Z,12.97
2022-09-26T02:06:35.813Z,13.02
2022-09-26T02:09:15.062Z,13.01
2022-09-26T02:11:48.799Z,13.04
2022-09-26T02:14:43.375Z,13.01
2022-09-26T02:17:27.477Z,13.02
2022-09-26T02:20:10.735Z,13.00
2022-09-26T02:22:39.316Z,12.95
2022-09-26T02:25:08.794Z,12.99
2022-09-26T02:27:36.040Z,13.02
2022-09-26T02:30:05.847Z,13.04
2022-09-26T02:32:34.401Z,13.06
2022-09-26T02:35:23.329Z,12.96
2022-09-26T02:37:50.820Z,12.99
2022-09-26T02:40:20.496Z,13.00
2022-09-26T02:43:12.177Z,12.98
2022-09-26T02:46:04.508Z,12.95
2022-09-26T02:49:09.643Z,12.95
2022-09-26T02:51:57.705Z,12.97
2022-09-26T02:54:53.914Z,12.97
2022-09-26T02:58:05.605Z,12.93
2022-09-26T03:00:59.010Z,12.88
2022-09-26T03:03:47.840Z,12.89
2022-09-26T03:06:20.937Z,12.86
2022-09-26T03:08:50.421Z,12.89
2022-09-26T03:11:24.553Z,12.91
2022-09-26T03:13:56.311Z,12.91
2022-09-26T03:16:29.385Z,12.92
2022-09-26T03:19:32.448Z,12.83
2022-09-26T03:22:00.130Z,12.83
2022-09-26T03:24:28.444Z,12.91
2022-09-26T03:26:56.597Z,12.87
2022-09-26T03:29:23.963Z,12.91
2022-09-26T03:31:51.564Z,12.88
2022-09-26T03:34:19.261Z,12.92
2022-09-26T03:36:46.510Z,12.93
2022-09-26T03:39:14.236Z,12.95
2022-09-26T03:41:42.283Z,12.97
2022-09-26T03:44:09.730Z,12.99
2022-09-26T03:46:39.974Z,13.07
2022-09-26T03:49:07.525Z,13.08
2022-09-26T03:51:34.681Z,13.08
2022-09-26T03:54:02.177Z,13.09
2022-09-26T03:56:29.451Z,13.08
2022-09-26T03:58:56.731Z,13.05
2022-09-26T04:01:24.675Z,13.09
2022-09-26T04:03:51.987Z,13.10
2022-09-26T04:06:22.156Z,13.12
2022-09-26T04:08:52.817Z,13.09
2022-09-26T04:11:24.657Z,13.08
2022-09-26T04:13:54.194Z,13.11
2022-09-26T04:16:23.998Z,13.07
2022-09-26T04:18:58.812Z,13.03
2022-09-26T04:21:29.820Z,12.97
2022-09-26T04:23:57.588Z,13.02
2022-09-26T04:26:25.065Z,13.05
2022-09-26T04:28:56.765Z,13.00
2022-09-26T04:31:27.935Z,13.02
2022-09-26T04:33:55.617Z,13.03
2022-09-26T04:36:23.490Z,13.05
2022-09-26T04:38:50.741Z,13.00
2022-09-26T04:41:22.064Z,13.01
2022-09-26T04:43:49.645Z,12.99
2022-09-26T04:46:28.217Z,12.98
2022-09-26T04:49:00.774Z,13.02
2022-09-26T04:51:31.785Z,13.05
2022-09-26T04:53:59.767Z,13.04
2022-09-26T04:56:29.705Z,13.06
2022-09-26T04:58:59.293Z,13.09
2022-09-26T05:01:27.475Z,13.16
2022-09-26T05:03:58.515Z,13.09
2022-09-26T05:06:26.150Z,13.06
2022-09-26T05:08:53.630Z,13.13
2022-09-26T05:11:21.631Z,13.15
2022-09-26T05:13:53.560Z,13.13
2022-09-26T05:16:21.703Z,13.12
2022-09-26T05:18:52.767Z,13.15
2022-09-26T05:21:20.720Z,13.19
2022-09-26T05:24:08.135Z,13.25
2022-09-26T05:26:49.811Z,13.26
2022-09-26T05:29:18.718Z,13.32
2022-09-26T05:31:46.678Z,13.38
2022-09-26T05:34:19.563Z,13.34
2022-09-26T05:36:48.177Z,13.40
2022-09-26T05:39:36.767Z,13.47
2022-09-26T05:42:08.477Z,13.52
2022-09-26T05:44:39.173Z,13.54
2022-09-26T05:47:07.752Z,13.59
2022-09-26T05:49:36.346Z,13.59
2022-09-26T05:52:04.138Z,13.70
2022-09-26T05:54:31.603Z,13.76
2022-09-26T05:56:58.920Z,13.82
2022-09-26T05:59:26.164Z,13.79
2022-09-26T06:01:54.613Z,13.83
2022-09-26T06:04:21.948Z,13.85
2022-09-26T06:06:49.223Z,13.81
2022-09-26T06:09:16.825Z,13.84
2022-09-26T06:11:43.984Z,13.78
2022-09-26T06:14:11.164Z,13.77
2022-09-26T06:16:38.605Z,13.79
2022-09-26T06:19:06.062Z,13.78
2022-09-26T06:21:34.118Z,13.95
2022-09-26T06:24:03.032Z,14.10
2022-09-26T06:26:30.455Z,14.12
2022-09-26T06:29:00.878Z,14.27
2022-09-26T06:31:29.997Z,14.32
2022-09-26T06:33:58.617Z,14.32
2022-09-26T06:36:25.950Z,14.35
2022-09-26T06:38:56.024Z,14.41
2022-09-26T06:41:26.337Z,14.35
2022-09-26T06:43:53.704Z,14.33
2022-09-26T06:46:21.779Z,14.33
2022-09-26T06:48:49.013Z,14.34
2022-09-26T06:51:16.254Z,14.36
2022-09-26T06:53:45.831Z,14.32
2022-09-26T06:56:13.491Z,14.42
2022-09-26T06:58:41.929Z,14.45
2022-09-26T07:01:11.243Z,14.42
2022-09-26T07:03:42.946Z,14.41
2022-09-26T07:06:13.558Z,14.48
2022-09-26T07:09:01.385Z,14.65
2022-09-26T07:11:38.284Z,14.85
2022-09-26T07:14:17.319Z,14.99
2022-09-26T07:16:47.962Z,15.15
2022-09-26T07:19:16.255Z,15.26
2022-09-26T07:21:43.685Z,15.22
2022-09-26T07:24:14.386Z,15.21
2022-09-26T07:26:43.008Z,15.22
2022-09-26T07:29:10.960Z,15.20
2022-09-26T07:31:38.587Z,15.23
2022-09-26T07:34:07.743Z,15.30
2022-09-26T07:36:35.320Z,15.39
2022-09-26T07:39:02.466Z,15.45
2022-09-26T07:41:31.229Z,15.52
2022-09-26T07:47:05.758Z,15.75
2022-09-26T07:49:51.905Z,15.94
2022-09-26T07:52:22.273Z,16.37
2022-09-26T07:54:49.735Z,16.81
2022-09-26T07:57:17.192Z,17.35
2022-09-26T07:59:44.593Z,17.83
2022-09-26T08:02:32.993Z,17.84
2022-09-26T08:05:05.458Z,17.60
2022-09-26T08:07:35.577Z,17.49
2022-09-26T08:10:07.225Z,17.30
2022-09-26T08:12:39.795Z,17.08
2022-09-26T08:15:09.032Z,16.94
2022-09-26T08:17:37.115Z,16.81
2022-09-26T08:20:05.010Z,16.75
2022-09-26T08:22:32.789Z,16.83
2022-09-26T08:25:00.352Z,16.82
2022-09-26T08:27:32.680Z,16.72
2022-09-26T08:30:00.897Z,16.46
2022-09-26T08:32:30.583Z,16.29
2022-09-26T08:34:58.019Z,16.18
2022-09-26T08:37:29.661Z,16.03
2022-09-26T08:39:57.493Z,16.09
2022-09-26T08:42:55.659Z,16.06
2022-09-26T08:46:01.345Z,16.14
2022-09-26T08:48:45.254Z,16.07
2022-09-26T08:51:29.199Z,16.18
2022-09-26T08:54:18.326Z,16.21
2022-09-26T08:57:03.135Z,16.26
2022-09-26T08:59:44.306Z,16.41
2022-09-26T09:02:39.557Z,16.62
2022-09-26T09:05:19.699Z,16.73
2022-09-26T09:07:53.750Z,16.83
2022-09-26T09:10:47.437Z,16.84
2022-09-26T09:13:21.380Z,16.95
2022-09-26T09:16:16.368Z,17.04
2022-09-26T09:19:11.685Z,17.22
2022-09-26T09:22:49.026Z,17.38
2022-09-26T09:25:31.680Z,17.63
2022-09-26T09:28:23.441Z,17.70
2022-09-26T09:31:00.207Z,17.67
2022-09-26T09:33:33.925Z,17.63
2022-09-26T09:36:15.012Z,17.55
2022-09-26T09:38:48.996Z,17.45
2022-09-26T09:41:31.430Z,17.56
2022-09-26T09:44:06.216Z,17.75
2022-09-26T09:46:40.733Z,18.02
2022-09-26T09:49:25.050Z,18.55
2022-09-26T09:52:34.157Z,18.99
2022-09-26T09:55:34.857Z,19.27
2022-09-26T09:58:32.971Z,19.11
2022-09-26T10:01:25.718Z,18.94
2022-09-26T10:04:08.265Z,18.81
2022-09-26T10:06:45.052Z,18.82
2022-09-26T10:09:36.024Z,18.69
2022-09-26T10:12:24.228Z,18.52
2022-09-26T10:14:59.998Z,18.47
2022-09-26T10:17:28.695Z,18.34
2022-09-26T10:19:56.870Z,18.46
2022-09-26T10:22:37.516Z,18.27
2022-09-26T10:25:26.455Z,18.37
2022-09-26T10:27:57.277Z,18.57
2022-09-26T10:30:33.255Z,18.91
2022-09-26T10:33:04.135Z,18.78
2022-09-26T10:35:44.874Z,18.73
2022-09-26T10:38:30.165Z,18.42
2022-09-26T10:41:03.432Z,18.29
2022-09-26T10:43:36.188Z,18.50
2022-09-26T10:46:21.376Z,19.26
2022-09-26T10:48:59.703Z,19.71
2022-09-26T10:51:44.989Z,19.56
2022-09-26T10:54:19.155Z,19.56
2022-09-26T10:56:59.504Z,19.45
2022-09-26T10:59:32.395Z,19.39
2022-09-26T11:02:02.629Z,19.24
2022-09-26T11:04:53.219Z,19.63
2022-09-26T11:07:30.485Z,19.93
2022-09-26T11:10:02.925Z,20.51
2022-09-26T11:12:35.638Z,21.47
2022-09-26T11:15:10.840Z,23.04
2022-09-26T11:17:48.682Z,23.83
2022-09-26T11:20:29.364Z,24.95
2022-09-26T11:23:16.587Z,29.14
2022-09-26T11:26:11.182Z,35.35
2022-09-26T11:29:19.694Z,38.46
2022-09-26T11:31:47.528Z,44.09
2022-09-26T11:34:23.201Z,47.00
2022-09-26T11:37:03.789Z,49.02
2022-09-26T11:39:43.136Z,51.57
2022-09-26T11:42:31.742Z,52.22
2022-09-26T11:45:19.037Z,54.13
2022-09-26T11:48:08.166Z,53.92
2022-09-26T11:51:08.926Z,46.84
2022-09-26T11:54:02.776Z,42.71
2022-09-26T11:57:08.679Z,40.41
2022-09-26T11:59:50.473Z,37.33
2022-09-26T12:02:40.901Z,36.60
2022-09-26T12:05:29.425Z,32.72
2022-09-26T12:08:37.629Z,30.41
2022-09-26T12:11:41.606Z,27.63
2022-09-26T12:14:47.713Z,26.92
2022-09-26T12:17:18.878Z,29.36
2022-09-26T12:20:16.266Z,38.11
2022-09-26T12:23:20.609Z,39.36
2022-09-26T12:26:09.001Z,44.55
2022-09-26T12:29:11.816Z,47.28
2022-09-26T12:32:17.920Z,43.27
2022-09-26T12:35:30.114Z,41.66
2022-09-26T12:38:24.637Z,46.11
2022-09-26T12:41:14.438Z,49.44
2022-09-26T12:44:22.856Z,48.92
2022-09-26T12:47:28.666Z,47.35
2022-09-26T12:51:01.701Z,50.99
2022-09-26T12:53:28.943Z,51.32
2022-09-26T12:56:09.491Z,46.80
2022-09-26T12:59:07.466Z,46.00
2022-09-26T13:02:17.062Z,41.42
2022-09-26T13:04:53.368Z,39.87
2022-09-26T13:07:38.769Z,36.13
2022-09-26T13:10:35.410Z,35.12
2022-09-26T13:13:33.658Z,34.91
2022-09-26T13:16:51.791Z,31.81
2022-09-26T13:20:01.706Z,30.14
2022-09-26T13:22:42.957Z,29.70
2022-09-26T13:25:26.574Z,30.43
2022-09-26T13:28:07.186Z,29.66
2022-09-26T13:30:41.891Z,29.54
2022-09-26T13:33:40.719Z,28.63
2022-09-26T13:36:11.050Z,27.91
2022-09-26T13:38:51.780Z,27.34
2022-09-26T13:41:46.856Z,26.69
2022-09-26T13:45:00.615Z,26.51
2022-09-26T13:47:52.413Z,26.38
2022-09-26T13:50:23.509Z,26.38
2022-09-26T13:53:17.819Z,27.28
2022-09-26T13:55:45.630Z,27.44
2022-09-26T13:58:21.623Z,27.09
2022-09-26T14:00:53.194Z,26.83
2022-09-26T14:03:21.794Z,26.91
2022-09-26T14:05:52.609Z,25.82
2022-09-26T14:08:48.565Z,25.04
2022-09-26T14:11:30.939Z,24.23
2022-09-26T14:14:19.308Z,23.29
2022-09-26T14:16:53.509Z,22.81
2022-09-26T14:19:46.797Z,22.63
2022-09-26T14:22:18.449Z,22.44
2022-09-26T14:24:51.139Z,22.29
2022-09-26T14:27:18.508Z,22.13
2022-09-26T14:30:06.861Z,21.78
2022-09-26T14:32:47.013Z,21.67
2022-09-26T14:35:19.977Z,21.56
2022-09-26T14:37:51.089Z,21.50
2022-09-26T14:40:32.932Z,21.27
2022-09-26T14:43:16.052Z,20.98
2022-09-26T14:46:00.735Z,20.84
2022-09-26T14:48:38.043Z,20.81
2022-09-26T14:51:11.413Z,20.77
2022-09-26T14:53:49.208Z,20.69
2022-09-26T14:56:44.097Z,20.52
2022-09-26T14:59:17.167Z,20.49
2022-09-26T15:01:45.964Z,20.35
2022-09-26T15:04:27.513Z,20.25
2022-09-26T15:07:01.262Z,20.04
2022-09-26T15:10:03.528Z,19.66
2022-09-26T15:12:57.349Z,19.39
2022-09-26T15:15:55.151Z,19.20
2022-09-26T15:18:32.257Z,19.23
2022-09-26T15:21:11.648Z,19.17
2022-09-26T15:23:52.565Z,19.25
2022-09-26T15:26:36.063Z,19.38
2022-09-26T15:29:07.223Z,19.44
2022-09-26T15:31:42.488Z,19.48
2022-09-26T15:34:24.171Z,19.46
2022-09-26T15:36:59.428Z,19.53
2022-09-26T15:39:32.573Z,19.46
2022-09-26T15:42:39.884Z,19.41
2022-09-26T15:45:27.183Z,19.25
2022-09-26T15:48:00.208Z,19.19
2022-09-26T15:50:46.312Z,19.05
2022-09-26T15:53:39.583Z,18.92
2022-09-26T15:56:17.024Z,18.81
2022-09-26T15:59:13.191Z,18.78
2022-09-26T16:01:45.078Z,18.74
2022-09-26T16:04:29.650Z,18.60
2022-09-26T16:07:15.750Z,18.55
2022-09-26T16:09:47.847Z,18.37
2022-09-26T16:12:29.485Z,18.12
2022-09-26T16:15:19.350Z,17.94
2022-09-26T16:17:55.956Z,17.79
2022-09-26T16:20:33.186Z,17.67
2022-09-26T16:23:05.605Z,17.58
2022-09-26T16:25:55.027Z,17.42
2022-09-26T16:28:45.145Z,17.30
2022-09-26T16:31:29.318Z,17.24
2022-09-26T16:33:59.176Z,17.22
2022-09-26T16:36:36.152Z,17.12
2022-09-26T16:39:08.832Z,17.07
2022-09-26T16:42:02.480Z,17.00
2022-09-26T16:44:41.353Z,16.91
2022-09-26T16:47:45.387Z,16.81
2022-09-26T16:50:34.041Z,16.68
2022-09-26T16:53:03.162Z,16.54
2022-09-26T16:55:36.478Z,16.47
2022-09-26T16:58:05.729Z,16.35
2022-09-26T17:00:54.018Z,16.21
2022-09-26T17:03:31.720Z,16.10
2022-09-26T17:06:00.900Z,16.07
2022-09-26T17:08:29.034Z,16.01
2022-09-26T17:11:02.870Z,15.90
2022-09-26T17:13:35.454Z,15.89
2022-09-26T17:16:03.700Z,15.89
2022-09-26T17:18:33.396Z,15.92
2022-09-26T17:21:01.822Z,15.96
2022-09-26T17:23:42.053Z,15.87
2022-09-26T17:26:21.868Z,15.82
2022-09-26T17:28:53.441Z,15.83
2022-09-26T17:31:21.279Z,15.84
2022-09-26T17:33:54.284Z,15.82
2022-09-26T17:36:26.414Z,15.82
2022-09-26T17:38:54.875Z,15.83
2022-09-26T17:41:23.177Z,15.82
2022-09-26T17:43:58.873Z,15.83
2022-09-26T17:46:27.363Z,15.83
2022-09-26T17:48:56.354Z,15.78
2022-09-26T17:51:24.464Z,15.74
2022-09-26T17:53:52.805Z,15.70
2022-09-26T17:56:21.031Z,15.67
2022-09-26T17:58:52.098Z,15.67
2022-09-26T18:01:26.410Z,15.61
2022-09-26T18:04:03.720Z,15.49
2022-09-26T18:06:33.241Z,15.47
2022-09-26T18:09:10.256Z,15.44
2022-09-26T18:11:39.065Z,15.44
2022-09-26T18:14:08.252Z,15.44
2022-09-26T18:16:35.661Z,15.42
2022-09-26T18:19:07.594Z,15.38
2022-09-26T18:21:35.998Z,15.32
2022-09-26T18:24:07.018Z,15.28
2022-09-26T18:26:47.191Z,15.25
2022-09-26T18:29:39.039Z,15.18
2022-09-26T18:32:26.032Z,15.11
2022-09-26T18:34:54.033Z,15.08
2022-09-26T18:37:21.235Z,15.02
2022-09-26T18:39:52.293Z,14.94
2022-09-26T18:42:24.621Z,14.89
2022-09-26T18:45:05.118Z,14.81
2022-09-26T18:47:43.302Z,14.74
2022-09-26T18:50:22.689Z,14.69
2022-09-26T18:52:52.234Z,14.68
2022-09-26T18:55:42.084Z,14.64
2022-09-26T18:58:25.778Z,14.58
2022-09-26T19:01:13.294Z,14.50
2022-09-26T19:03:45.435Z,14.45
2022-09-26T19:06:50.149Z,14.39
2022-09-26T19:09:21.599Z,14.36
2022-09-26T19:11:49.225Z,14.36
2022-09-26T19:14:19.174Z,14.38
2022-09-26T19:16:49.341Z,14.35
2022-09-26T19:19:18.355Z,14.31
2022-09-26T19:22:01.004Z,14.29
2022-09-26T19:24:40.636Z,14.34
2022-09-26T19:27:20.563Z,14.42
2022-09-26T19:29:48.026Z,14.49
2022-09-26T19:32:42.386Z,14.52
2022-09-26T19:35:41.642Z,14.54
2022-09-26T19:38:38.336Z,14.57
2022-09-26T19:41:11.015Z,14.62
2022-09-26T19:43:38.314Z,14.64
2022-09-26T19:46:13.489Z,14.64
2022-09-26T19:48:44.187Z,14.63
2022-09-26T19:51:16.898Z,14.66
2022-09-26T19:53:44.488Z,14.69
2022-09-26T19:56:11.885Z,14.73
2022-09-26T19:58:39.934Z,14.78
2022-09-26T20:01:21.342Z,14.80
2022-09-26T20:03:50.035Z,14.77
2022-09-26T20:06:26.322Z,14.78
2022-09-26T20:09:01.612Z,14.79
2022-09-26T20:11:29.791Z,14.67
2022-09-26T20:14:15.468Z,14.62
2022-09-26T20:16:43.457Z,14.60
2022-09-26T20:19:25.864Z,14.45
2022-09-26T20:21:53.358Z,14.44
2022-09-26T20:24:20.893Z,14.37
2022-09-26T20:26:48.757Z,14.33
2022-09-26T20:29:17.264Z,14.30
2022-09-26T20:31:44.961Z,14.25
2022-09-26T20:34:12.569Z,14.20
2022-09-26T20:36:50.728Z,14.14
2022-09-26T20:39:26.228Z,14.07
2022-09-26T20:41:53.903Z,14.03
2022-09-26T20:44:29.952Z,13.99
2022-09-26T20:47:01.515Z,13.97
2022-09-26T20:49:44.145Z,13.86
2022-09-26T20:52:24.706Z,13.84
2022-09-26T20:54:53.190Z,13.76
2022-09-26T20:57:22.432Z,13.77
2022-09-26T20:59:51.177Z,13.76
2022-09-26T21:02:32.979Z,13.63
2022-09-26T21:05:01.977Z,13.53
2022-09-26T21:07:32.760Z,13.50
2022-09-26T21:09:59.990Z,13.47
2022-09-26T21:12:27.535Z,13.48
2022-09-26T21:14:54.750Z,13.49
2022-09-26T21:17:28.568Z,13.45
2022-09-26T21:19:56.477Z,13.47
2022-09-26T21:22:27.003Z,13.45
2022-09-26T21:24:55.477Z,13.31
2022-09-26T21:27:23.430Z,13.32
2022-09-26T21:29:50.606Z,13.33
2022-09-26T21:32:23.340Z,13.24
2022-09-26T21:35:03.157Z,13.19
2022-09-26T21:37:31.522Z,13.18
2022-09-26T21:39:59.178Z,13.12
2022-09-26T21:42:26.568Z,13.18
2022-09-26T21:45:01.176Z,13.15
2022-09-26T21:47:28.677Z,13.12
2022-09-26T21:49:55.880Z,13.13
2022-09-26T21:52:34.808Z,13.12
2022-09-26T21:55:04.511Z,13.11
2022-09-26T21:57:41.371Z,13.10
2022-09-26T22:00:11.628Z,13.11
2022-09-26T22:02:41.127Z,13.06
2022-09-26T22:05:11.947Z,13.03
2022-09-26T22:07:39.794Z,12.95
2022-09-26T22:10:07.561Z,12.89
2022-09-26T22:12:35.572Z,12.88
2022-09-26T22:15:02.908Z,12.82
2022-09-26T22:17:30.237Z,12.85
2022-09-26T22:19:57.765Z,12.72
2022-09-26T22:22:26.046Z,12.70
2022-09-26T22:24:54.159Z,12.60
2022-09-26T22:27:26.824Z,12.62
2022-09-26T22:29:54.589Z,12.61
2022-09-26T22:32:21.873Z,12.61
2022-09-26T22:34:49.399Z,12.56
2022-09-26T22:37:16.622Z,12.51
2022-09-26T22:39:44.005Z,12.52
2022-09-26T22:42:12.040Z,12.51
2022-09-26T22:44:39.263Z,12.49
2022-09-26T22:47:06.641Z,12.42
2022-09-26T22:49:34.168Z,12.43
2022-09-26T22:52:02.391Z,12.38
2022-09-26T22:54:29.627Z,12.35
2022-09-26T22:56:57.155Z,12.27
2022-09-26T22:59:24.510Z,12.26
2022-09-26T23:01:52.962Z,12.21
2022-09-26T23:04:20.450Z,12.15
2022-09-26T23:06:47.690Z,12.18
2022-09-26T23:09:14.952Z,12.17
2022-09-26T23:11:43.311Z,12.12
2022-09-26T23:14:10.538Z,12.11
2022-09-26T23:16:38.630Z,12.07
2022-09-26T23:19:06.237Z,12.07
2022-09-26T23:21:33.469Z,12.05
2022-09-26T23:24:01.221Z,12.04
2022-09-26T23:26:32.051Z,12.03
2022-09-26T23:29:00.045Z,12.01
2022-09-26T23:31:28.807Z,12.00
2022-09-26T23:33:57.590Z,11.95
2022-09-26T23:36:25.577Z,11.95
2022-09-26T23:38:52.916Z,11.96
2022-09-26T23:41:20.533Z,11.99
2022-09-26T23:43:47.775Z,11.92
2022-09-26T23:46:15.862Z,11.89
2022-09-26T23:48:43.984Z,11.89
2022-09-26T23:51:11.160Z,11.86
2022-09-26T23:53:38.520Z,11.85
2022-09-26T23:56:09.639Z,11.78
2022-09-26T23:58:37.588Z,11.70
